• Join FlightAware (Why Join?)
  • Login
  • US Flag 
04:47PM EDT


 

Airport Tracker/Info


-or-


 

Live Flight TrackerFlight Track Log ✈ KAP2826 ✈ 06-May-2013 ✈ KBOS - KACK

Flight Track Log - Related Links

Times and Time Zones

All times are in EDT time to prevent confusion due to time zone crossing. See the KAP2826 flight status page for this flight to view local times or setup timezone preferences in your user account.

Time Position Orientation Groundspeed Altitude Reporting Facility
EDT Latitude Longitude Course Direction KTS MPH feet Rate Location/Type
02:38PM 42.3667 -70.9833 114° Southeast 111 128 400  Level KA90
02:39PM 42.3500 -70.9333 114° Southeast 119 137 1,000 480 Climbing KA90
02:40PM 42.3333 -70.8833 114° Southeast 124 143 1,600 600 Climbing KA90
02:42PM 42.2969 -70.8347 135° Southeast  Level FlightAware Approximate
02:42PM 42.2833 -70.8333 135° Southeast 121 139 2,800  Level KA90
02:43PM 42.2500 -70.8167 160° South 122 140 3,400 600 Climbing KA90
02:45PM 42.2000 -70.7667 143° Southeast 129 148 4,600 480 Climbing KA90
02:46PM 42.1667 -70.7500 160° South 128 147 5,000 360 Climbing KA90
02:48PM 42.1601 -70.6765 97° East  Level FlightAware Approximate
02:55PM 41.9319 -70.5196 114° Southeast  Level Estimated
02:56PM 41.9404 -70.4717 77° East  Level FlightAware Approximate
02:57PM 41.9488 -70.4239 77° East  Level FlightAware Approximate
02:58PM 41.9572 -70.3760 77° East  Level FlightAware Approximate
02:59PM 41.9656 -70.3281 77° East  Level FlightAware Approximate
03:00PM 41.9739 -70.2802 77° East  Level FlightAware Approximate
03:01PM 41.9823 -70.2322 77° East  Level FlightAware Approximate
03:02PM 41.9463 -70.2236 180° South  Level Estimated
03:03PM 41.9124 -70.2049 158° South  Level FlightAware Approximate
03:04PM 41.8786 -70.1862 158° South  Level FlightAware Approximate
03:05PM 41.8447 -70.1676 158° South  Level FlightAware Approximate
03:06PM 41.8108 -70.1489 158° South  Level FlightAware Approximate
03:07PM 41.7770 -70.1303 158° South  Level FlightAware Approximate
03:08PM 41.7431 -70.1117 158° South  Level FlightAware Approximate
03:09PM 41.7093 -70.0931 158° South  Level FlightAware Approximate
03:10PM 41.6754 -70.0746 158° South  Level FlightAware Approximate
03:11PM 41.6415 -70.0560 158° South  Level FlightAware Approximate
03:12PM 41.6076 -70.0375 158° South  Level FlightAware Approximate
03:13PM 41.5906 -70.0352 189° South  Level FlightAware Approximate
03:14PM 41.5544 -70.0424 189° South  Level FlightAware Approximate
03:15PM 41.5182 -70.0497 189° South  Level FlightAware Approximate
03:16PM 41.4816 -70.0500 180° South  Level FlightAware Approximate
03:17PM 41.4450 -70.0500 180° South  Level FlightAware Approximate
03:18PM 41.4085 -70.0500 180° South  Level FlightAware Approximate
03:19PM 41.3718 -70.0500 180° South  Level FlightAware Approximate
03:20PM 41.3353 -70.0500 180° South  Level FlightAware Approximate
03:21PM 41.2987 -70.0500 180° South  Level FlightAware Approximate
03:22PM 41.2621 -70.0500 180° South  Level FlightAware Approximate
03:23PM 41.2500 -70.0500 180° South  Level FlightAware Approximate
03:24PM 41.2531 -70.0603 180° South  Level Estimated
03:25PM 41.2531 -70.0603 180° South  Level Estimated
03:26PM 41.2531 -70.0603 180° South  Level Estimated
03:27PM 41.2531 -70.0603 180° South  Level Estimated
03:28PM 41.2531 -70.0603 180° South  Level Estimated
03:29PM 41.2531 -70.0603 180° South  Level Estimated
03:30PM 41.2531 -70.0603 180° South  Level Estimated
03:31PM 41.2531 -70.0603 180° South  Level Estimated
03:32PM 41.2531 -70.0603 180° South  Level Estimated
03:33PM 41.2531 -70.0603 180° South  Level Estimated
03:34PM 41.2531 -70.0603 180° South  Level Estimated
03:35PM 41.2531 -70.0603 180° South  Level Estimated
03:36PM 41.2531 -70.0603 180° South  Level Estimated